sensor_id;sensor_type;location;lat;lon;timestamp;temperature;humidity
21678;DHT22;11000;50.360;7.582;2022-08-21T00:01:40;18.70;99.90
21678;DHT22;11000;50.360;7.582;2022-08-21T00:04:06;18.70;99.90
21678;DHT22;11000;50.360;7.582;2022-08-21T00:06:26;18.70;99.90
21678;DHT22;11000;50.360;7.582;2022-08-21T00:08:47;18.70;99.90
21678;DHT22;11000;50.360;7.582;2022-08-21T00:11:08;18.60;99.90
21678;DHT22;11000;50.360;7.582;2022-08-21T00:13:28;18.50;99.90
21678;DHT22;11000;50.360;7.582;2022-08-21T00:15:49;18.50;99.90
21678;DHT22;11000;50.360;7.582;2022-08-21T00:18:10;18.50;99.90
21678;DHT22;11000;50.360;7.582;2022-08-21T00:20:31;18.50;99.90
21678;DHT22;11000;50.360;7.582;2022-08-21T00:22:52;18.40;99.90
21678;DHT22;11000;50.360;7.582;2022-08-21T00:25:14;18.40;99.90
21678;DHT22;11000;50.360;7.582;2022-08-21T00:27:34;18.40;99.90
21678;DHT22;11000;50.360;7.582;2022-08-21T00:29:55;18.30;99.90
21678;DHT22;11000;50.360;7.582;2022-08-21T00:32:24;18.30;99.90
21678;DHT22;11000;50.360;7.582;2022-08-21T00:34:45;18.20;99.90
21678;DHT22;11000;50.360;7.582;2022-08-21T00:37:05;18.20;99.90
21678;DHT22;11000;50.360;7.582;2022-08-21T00:39:28;18.20;99.90
21678;DHT22;11000;50.360;7.582;2022-08-21T00:41:48;18.20;99.90
21678;DHT22;11000;50.360;7.582;2022-08-21T00:44:13;18.20;99.90
21678;DHT22;11000;50.360;7.582;2022-08-21T00:46:34;18.20;99.90
21678;DHT22;11000;50.360;7.582;2022-08-21T00:48:55;18.10;99.90
21678;DHT22;11000;50.360;7.582;2022-08-21T00:51:23;18.10;99.90
21678;DHT22;11000;50.360;7.582;2022-08-21T00:53:46;18.00;99.90
21678;DHT22;11000;50.360;7.582;2022-08-21T00:56:07;18.00;99.90
21678;DHT22;11000;50.360;7.582;2022-08-21T00:58:29;18.00;99.90
21678;DHT22;11000;50.360;7.582;2022-08-21T01:00:51;17.90;99.90
21678;DHT22;11000;50.360;7.582;2022-08-21T01:03:16;17.90;99.90
21678;DHT22;11000;50.360;7.582;2022-08-21T01:05:39;17.90;99.90
21678;DHT22;11000;50.360;7.582;2022-08-21T01:08:00;18.00;99.90
21678;DHT22;11000;50.360;7.582;2022-08-21T01:10:21;17.90;99.90
21678;DHT22;11000;50.360;7.582;2022-08-21T01:12:41;17.90;99.90
21678;DHT22;11000;50.360;7.582;2022-08-21T01:15:04;17.80;99.90
21678;DHT22;11000;50.360;7.582;2022-08-21T01:17:25;17.80;99.90
21678;DHT22;11000;50.360;7.582;2022-08-21T01:19:46;17.80;99.90
21678;DHT22;11000;50.360;7.582;2022-08-21T01:22:07;17.80;99.90
21678;DHT22;11000;50.360;7.582;2022-08-21T01:24:27;17.80;99.90
21678;DHT22;11000;50.360;7.582;2022-08-21T01:26:49;17.70;99.90
21678;DHT22;11000;50.360;7.582;2022-08-21T01:31:38;17.70;99.90
21678;DHT22;11000;50.360;7.582;2022-08-21T01:33:59;17.60;99.90
21678;DHT22;11000;50.360;7.582;2022-08-21T01:36:20;17.60;99.90
21678;DHT22;11000;50.360;7.582;2022-08-21T01:38:41;17.60;99.90
21678;DHT22;11000;50.360;7.582;2022-08-21T01:41:02;17.50;99.90
21678;DHT22;11000;50.360;7.582;2022-08-21T01:43:22;17.50;99.90
21678;DHT22;11000;50.360;7.582;2022-08-21T01:45:43;17.50;99.90
21678;DHT22;11000;50.360;7.582;2022-08-21T01:48:03;17.30;99.90
21678;DHT22;11000;50.360;7.582;2022-08-21T01:50:24;17.40;99.90
21678;DHT22;11000;50.360;7.582;2022-08-21T01:52:44;17.30;99.90
21678;DHT22;11000;50.360;7.582;2022-08-21T01:55:07;17.20;99.90
21678;DHT22;11000;50.360;7.582;2022-08-21T01:57:27;17.20;99.90
21678;DHT22;11000;50.360;7.582;2022-08-21T01:59:48;17.20;99.90
21678;DHT22;11000;50.360;7.582;2022-08-21T02:02:09;17.20;99.90
21678;DHT22;11000;50.360;7.582;2022-08-21T02:04:29;17.30;99.90
21678;DHT22;11000;50.360;7.582;2022-08-21T02:06:50;17.30;99.90
21678;DHT22;11000;50.360;7.582;2022-08-21T02:09:11;17.20;99.90
21678;DHT22;11000;50.360;7.582;2022-08-21T02:11:32;17.20;99.90
21678;DHT22;11000;50.360;7.582;2022-08-21T02:13:53;17.10;99.90
21678;DHT22;11000;50.360;7.582;2022-08-21T02:16:14;17.20;99.90
21678;DHT22;11000;50.360;7.582;2022-08-21T02:18:36;17.20;99.90
21678;DHT22;11000;50.360;7.582;2022-08-21T02:20:56;17.00;99.90
21678;DHT22;11000;50.360;7.582;2022-08-21T02:23:17;16.90;99.90
21678;DHT22;11000;50.360;7.582;2022-08-21T02:25:38;16.90;99.90
21678;DHT22;11000;50.360;7.582;2022-08-21T02:28:02;16.90;99.90
21678;DHT22;11000;50.360;7.582;2022-08-21T02:30:34;16.90;99.90
21678;DHT22;11000;50.360;7.582;2022-08-21T02:32:55;16.90;99.90
21678;DHT22;11000;50.360;7.582;2022-08-21T02:35:16;16.90;99.90
21678;DHT22;11000;50.360;7.582;2022-08-21T02:38:09;17.00;99.90
21678;DHT22;11000;50.360;7.582;2022-08-21T02:40:34;17.00;99.90
21678;DHT22;11000;50.360;7.582;2022-08-21T02:42:54;17.00;99.90
21678;DHT22;11000;50.360;7.582;2022-08-21T02:45:15;17.00;99.90
21678;DHT22;11000;50.360;7.582;2022-08-21T02:47:38;16.90;99.90
21678;DHT22;11000;50.360;7.582;2022-08-21T02:49:58;16.90;99.90
21678;DHT22;11000;50.360;7.582;2022-08-21T02:52:19;16.80;99.90
21678;DHT22;11000;50.360;7.582;2022-08-21T02:54:39;16.90;99.90
21678;DHT22;11000;50.360;7.582;2022-08-21T02:57:00;16.90;99.90
21678;DHT22;11000;50.360;7.582;2022-08-21T02:59:20;16.80;99.90
21678;DHT22;11000;50.360;7.582;2022-08-21T03:01:41;16.80;99.90
21678;DHT22;11000;50.360;7.582;2022-08-21T03:04:01;16.80;99.90
21678;DHT22;11000;50.360;7.582;2022-08-21T03:06:22;16.70;99.90
21678;DHT22;11000;50.360;7.582;2022-08-21T03:08:43;16.70;99.90
21678;DHT22;11000;50.360;7.582;2022-08-21T03:11:05;16.80;99.90
21678;DHT22;11000;50.360;7.582;2022-08-21T03:13:27;16.70;99.90
21678;DHT22;11000;50.360;7.582;2022-08-21T03:15:49;16.70;99.90
21678;DHT22;11000;50.360;7.582;2022-08-21T03:18:10;16.70;99.90
21678;DHT22;11000;50.360;7.582;2022-08-21T03:20:32;16.70;99.90
21678;DHT22;11000;50.360;7.582;2022-08-21T03:22:53;16.60;99.90
21678;DHT22;11000;50.360;7.582;2022-08-21T03:25:14;16.60;99.90
21678;DHT22;11000;50.360;7.582;2022-08-21T03:27:35;16.60;99.90
21678;DHT22;11000;50.360;7.582;2022-08-21T03:29:55;16.60;99.90
21678;DHT22;11000;50.360;7.582;2022-08-21T03:32:16;16.50;99.90
21678;DHT22;11000;50.360;7.582;2022-08-21T03:34:38;16.50;99.90
21678;DHT22;11000;50.360;7.582;2022-08-21T03:36:58;16.50;99.90
21678;DHT22;11000;50.360;7.582;2022-08-21T03:39:19;16.50;99.90
21678;DHT22;11000;50.360;7.582;2022-08-21T03:41:39;16.40;99.90
21678;DHT22;11000;50.360;7.582;2022-08-21T03:44:00;16.40;99.90
21678;DHT22;11000;50.360;7.582;2022-08-21T03:46:20;16.40;99.90
21678;DHT22;11000;50.360;7.582;2022-08-21T03:48:41;16.40;99.90
21678;DHT22;11000;50.360;7.582;2022-08-21T03:51:02;16.30;99.90
21678;DHT22;11000;50.360;7.582;2022-08-21T03:53:23;16.30;99.90
21678;DHT22;11000;50.360;7.582;2022-08-21T03:55:45;16.20;99.90
21678;DHT22;11000;50.360;7.582;2022-08-21T03:58:07;16.20;99.90
21678;DHT22;11000;50.360;7.582;2022-08-21T04:00:27;16.20;99.90
21678;DHT22;11000;50.360;7.582;2022-08-21T04:02:48;16.10;99.90
21678;DHT22;11000;50.360;7.582;2022-08-21T04:05:10;16.20;99.90
21678;DHT22;11000;50.360;7.582;2022-08-21T04:07:30;16.10;99.90
21678;DHT22;11000;50.360;7.582;2022-08-21T04:09:51;16.10;99.90
21678;DHT22;11000;50.360;7.582;2022-08-21T04:12:11;16.10;99.90
21678;DHT22;11000;50.360;7.582;2022-08-21T04:14:32;16.10;99.90
21678;DHT22;11000;50.360;7.582;2022-08-21T04:16:53;16.10;99.90
21678;DHT22;11000;50.360;7.582;2022-08-21T04:19:14;16.00;99.90
21678;DHT22;11000;50.360;7.582;2022-08-21T04:21:36;16.00;99.90
21678;DHT22;11000;50.360;7.582;2022-08-21T04:23:57;16.00;99.90
21678;DHT22;11000;50.360;7.582;2022-08-21T04:26:19;16.00;99.90
21678;DHT22;11000;50.360;7.582;2022-08-21T04:28:39;16.00;99.90
21678;DHT22;11000;50.360;7.582;2022-08-21T04:31:00;16.00;99.90
21678;DHT22;11000;50.360;7.582;2022-08-21T04:33:21;15.90;99.90
21678;DHT22;11000;50.360;7.582;2022-08-21T04:35:42;15.90;99.90
21678;DHT22;11000;50.360;7.582;2022-08-21T04:38:03;15.90;99.90
21678;DHT22;11000;50.360;7.582;2022-08-21T04:40:25;15.90;99.90
21678;DHT22;11000;50.360;7.582;2022-08-21T04:42:53;15.90;99.90
21678;DHT22;11000;50.360;7.582;2022-08-21T04:45:29;15.90;99.90
21678;DHT22;11000;50.360;7.582;2022-08-21T04:47:51;15.90;99.90
21678;DHT22;11000;50.360;7.582;2022-08-21T04:50:12;15.80;99.90
21678;DHT22;11000;50.360;7.582;2022-08-21T04:52:33;15.80;99.90
21678;DHT22;11000;50.360;7.582;2022-08-21T04:54:53;15.80;99.90
21678;DHT22;11000;50.360;7.582;2022-08-21T04:57:16;15.80;99.90
21678;DHT22;11000;50.360;7.582;2022-08-21T04:59:42;15.80;99.90
21678;DHT22;11000;50.360;7.582;2022-08-21T05:02:05;15.80;99.90
21678;DHT22;11000;50.360;7.582;2022-08-21T05:04:28;15.80;99.90
21678;DHT22;11000;50.360;7.582;2022-08-21T05:06:50;15.80;99.90
21678;DHT22;11000;50.360;7.582;2022-08-21T05:09:14;15.80;99.90
21678;DHT22;11000;50.360;7.582;2022-08-21T05:11:35;15.90;99.90
21678;DHT22;11000;50.360;7.582;2022-08-21T05:13:57;15.90;99.90
21678;DHT22;11000;50.360;7.582;2022-08-21T05:16:18;15.90;99.90
21678;DHT22;11000;50.360;7.582;2022-08-21T05:18:39;15.90;99.90
21678;DHT22;11000;50.360;7.582;2022-08-21T05:20:59;15.90;99.90
21678;DHT22;11000;50.360;7.582;2022-08-21T05:23:20;15.90;99.90
21678;DHT22;11000;50.360;7.582;2022-08-21T05:25:41;15.80;99.90
21678;DHT22;11000;50.360;7.582;2022-08-21T05:28:03;15.70;99.90
21678;DHT22;11000;50.360;7.582;2022-08-21T05:30:24;15.60;99.90
21678;DHT22;11000;50.360;7.582;2022-08-21T05:32:44;15.70;99.90
21678;DHT22;11000;50.360;7.582;2022-08-21T05:35:06;15.80;99.90
21678;DHT22;11000;50.360;7.582;2022-08-21T05:37:26;15.90;99.90
21678;DHT22;11000;50.360;7.582;2022-08-21T05:39:47;16.00;99.90
21678;DHT22;11000;50.360;7.582;2022-08-21T05:42:08;16.00;99.90
21678;DHT22;11000;50.360;7.582;2022-08-21T05:44:28;16.10;99.90
21678;DHT22;11000;50.360;7.582;2022-08-21T05:46:49;16.10;99.90
21678;DHT22;11000;50.360;7.582;2022-08-21T05:49:10;16.20;99.90
21678;DHT22;11000;50.360;7.582;2022-08-21T05:51:31;16.30;99.90
21678;DHT22;11000;50.360;7.582;2022-08-21T05:53:51;16.50;99.90
21678;DHT22;11000;50.360;7.582;2022-08-21T05:56:13;16.80;99.90
21678;DHT22;11000;50.360;7.582;2022-08-21T05:58:34;17.10;99.90
21678;DHT22;11000;50.360;7.582;2022-08-21T06:00:55;17.40;99.90
21678;DHT22;11000;50.360;7.582;2022-08-21T06:03:36;17.50;99.90
21678;DHT22;11000;50.360;7.582;2022-08-21T06:05:57;18.00;99.90
21678;DHT22;11000;50.360;7.582;2022-08-21T06:08:19;18.20;99.90
21678;DHT22;11000;50.360;7.582;2022-08-21T06:10:40;18.00;99.90
21678;DHT22;11000;50.360;7.582;2022-08-21T06:13:01;18.30;99.90
21678;DHT22;11000;50.360;7.582;2022-08-21T06:15:22;18.50;99.90
21678;DHT22;11000;50.360;7.582;2022-08-21T06:17:42;18.70;99.90
21678;DHT22;11000;50.360;7.582;2022-08-21T06:20:03;18.60;99.90
21678;DHT22;11000;50.360;7.582;2022-08-21T06:22:24;19.10;99.90
21678;DHT22;11000;50.360;7.582;2022-08-21T06:24:45;19.50;99.90
21678;DHT22;11000;50.360;7.582;2022-08-21T06:27:06;19.80;99.90
21678;DHT22;11000;50.360;7.582;2022-08-21T06:29:27;20.10;99.90
21678;DHT22;11000;50.360;7.582;2022-08-21T06:31:49;20.20;99.90
21678;DHT22;11000;50.360;7.582;2022-08-21T06:34:10;20.40;99.90
21678;DHT22;11000;50.360;7.582;2022-08-21T06:36:31;20.60;99.90
21678;DHT22;11000;50.360;7.582;2022-08-21T06:38:51;20.80;99.90
21678;DHT22;11000;50.360;7.582;2022-08-21T06:41:13;21.10;99.90
21678;DHT22;11000;50.360;7.582;2022-08-21T06:43:34;21.20;99.90
21678;DHT22;11000;50.360;7.582;2022-08-21T06:45:54;20.70;99.90
21678;DHT22;11000;50.360;7.582;2022-08-21T06:48:15;20.10;99.90
21678;DHT22;11000;50.360;7.582;2022-08-21T06:50:36;20.00;99.90
21678;DHT22;11000;50.360;7.582;2022-08-21T06:53:05;20.30;99.90
21678;DHT22;11000;50.360;7.582;2022-08-21T06:55:26;20.80;99.90
21678;DHT22;11000;50.360;7.582;2022-08-21T06:57:46;20.40;99.90
21678;DHT22;11000;50.360;7.582;2022-08-21T07:00:07;21.10;99.90
21678;DHT22;11000;50.360;7.582;2022-08-21T07:02:29;21.70;99.90
21678;DHT22;11000;50.360;7.582;2022-08-21T07:04:50;21.80;99.90
21678;DHT22;11000;50.360;7.582;2022-08-21T07:07:11;21.90;99.90
21678;DHT22;11000;50.360;7.582;2022-08-21T07:09:31;22.40;99.90
21678;DHT22;11000;50.360;7.582;2022-08-21T07:11:54;21.90;99.90
21678;DHT22;11000;50.360;7.582;2022-08-21T07:14:15;22.40;99.90
21678;DHT22;11000;50.360;7.582;2022-08-21T07:16:36;22.70;99.90
21678;DHT22;11000;50.360;7.582;2022-08-21T07:18:56;22.80;99.90
21678;DHT22;11000;50.360;7.582;2022-08-21T07:21:17;23.10;99.90
21678;DHT22;11000;50.360;7.582;2022-08-21T07:23:42;23.70;99.90
21678;DHT22;11000;50.360;7.582;2022-08-21T07:26:05;23.70;99.90
21678;DHT22;11000;50.360;7.582;2022-08-21T07:28:26;23.30;99.90
21678;DHT22;11000;50.360;7.582;2022-08-21T07:30:52;23.30;99.90
21678;DHT22;11000;50.360;7.582;2022-08-21T07:33:13;23.40;99.90
21678;DHT22;11000;50.360;7.582;2022-08-21T07:35:34;23.70;99.90
21678;DHT22;11000;50.360;7.582;2022-08-21T07:37:54;23.70;99.90
21678;DHT22;11000;50.360;7.582;2022-08-21T07:40:16;23.80;99.90
21678;DHT22;11000;50.360;7.582;2022-08-21T07:42:42;23.80;99.90
21678;DHT22;11000;50.360;7.582;2022-08-21T07:45:09;23.80;99.90
21678;DHT22;11000;50.360;7.582;2022-08-21T07:47:31;23.20;99.90
21678;DHT22;11000;50.360;7.582;2022-08-21T07:49:52;22.70;99.90
21678;DHT22;11000;50.360;7.582;2022-08-21T07:52:15;23.30;99.90
21678;DHT22;11000;50.360;7.582;2022-08-21T07:54:36;23.20;99.90
21678;DHT22;11000;50.360;7.582;2022-08-21T07:56:57;23.60;99.90
21678;DHT22;11000;50.360;7.582;2022-08-21T07:59:18;24.00;99.90
21678;DHT22;11000;50.360;7.582;2022-08-21T08:01:39;24.10;99.90
21678;DHT22;11000;50.360;7.582;2022-08-21T08:03:59;24.10;99.90
21678;DHT22;11000;50.360;7.582;2022-08-21T08:06:20;24.70;99.90
21678;DHT22;11000;50.360;7.582;2022-08-21T08:08:41;25.20;99.90
21678;DHT22;11000;50.360;7.582;2022-08-21T08:11:01;25.40;99.90
21678;DHT22;11000;50.360;7.582;2022-08-21T08:13:22;25.40;99.90
21678;DHT22;11000;50.360;7.582;2022-08-21T08:15:43;25.20;99.90
21678;DHT22;11000;50.360;7.582;2022-08-21T08:18:03;24.90;99.90
21678;DHT22;11000;50.360;7.582;2022-08-21T08:20:24;25.00;99.90
21678;DHT22;11000;50.360;7.582;2022-08-21T08:22:47;25.20;99.90
21678;DHT22;11000;50.360;7.582;2022-08-21T08:25:08;24.60;99.90
21678;DHT22;11000;50.360;7.582;2022-08-21T08:27:33;24.70;99.90
21678;DHT22;11000;50.360;7.582;2022-08-21T08:29:54;24.60;99.90
21678;DHT22;11000;50.360;7.582;2022-08-21T08:32:15;24.30;99.90
21678;DHT22;11000;50.360;7.582;2022-08-21T08:34:37;24.30;99.90
21678;DHT22;11000;50.360;7.582;2022-08-21T08:36:57;25.00;99.90
21678;DHT22;11000;50.360;7.582;2022-08-21T08:39:19;24.70;99.90
21678;DHT22;11000;50.360;7.582;2022-08-21T08:41:41;25.30;99.90
21678;DHT22;11000;50.360;7.582;2022-08-21T08:44:04;25.20;99.90
21678;DHT22;11000;50.360;7.582;2022-08-21T08:46:34;24.40;99.90
21678;DHT22;11000;50.360;7.582;2022-08-21T08:49:00;24.50;99.90
21678;DHT22;11000;50.360;7.582;2022-08-21T08:51:42;25.40;99.90
21678;DHT22;11000;50.360;7.582;2022-08-21T08:54:12;25.10;99.90
21678;DHT22;11000;50.360;7.582;2022-08-21T08:56:35;25.60;99.90
21678;DHT22;11000;50.360;7.582;2022-08-21T08:59:02;26.20;98.50
21678;DHT22;11000;50.360;7.582;2022-08-21T09:01:27;25.80;97.00
21678;DHT22;11000;50.360;7.582;2022-08-21T09:03:48;25.10;99.90
21678;DHT22;11000;50.360;7.582;2022-08-21T09:06:43;25.30;99.90
21678;DHT22;11000;50.360;7.582;2022-08-21T09:15:20;25.40;98.30
21678;DHT22;11000;50.360;7.582;2022-08-21T09:20:32;25.10;99.90
21678;DHT22;11000;50.360;7.582;2022-08-21T09:28:11;25.40;96.80
21678;DHT22;11000;50.360;7.582;2022-08-21T09:30:34;25.80;96.80
21678;DHT22;11000;50.360;7.582;2022-08-21T09:32:55;25.70;93.40
21678;DHT22;11000;50.360;7.582;2022-08-21T09:35:20;25.80;91.50
21678;DHT22;11000;50.360;7.582;2022-08-21T09:37:52;26.00;90.70
21678;DHT22;11000;50.360;7.582;2022-08-21T09:43:23;26.90;87.80
21678;DHT22;11000;50.360;7.582;2022-08-21T09:45:48;27.00;86.30
21678;DHT22;11000;50.360;7.582;2022-08-21T09:48:12;27.40;81.70
21678;DHT22;11000;50.360;7.582;2022-08-21T09:50:33;27.60;79.80
21678;DHT22;11000;50.360;7.582;2022-08-21T09:52:58;27.10;83.00
21678;DHT22;11000;50.360;7.582;2022-08-21T09:55:28;26.40;82.70
21678;DHT22;11000;50.360;7.582;2022-08-21T09:58:08;25.60;86.90
21678;DHT22;11000;50.360;7.582;2022-08-21T10:00:32;25.70;87.30
21678;DHT22;11000;50.360;7.582;2022-08-21T10:02:53;25.40;88.70
21678;DHT22;11000;50.360;7.582;2022-08-21T10:05:23;26.00;88.20
21678;DHT22;11000;50.360;7.582;2022-08-21T10:07:44;25.70;84.10
21678;DHT22;11000;50.360;7.582;2022-08-21T10:10:13;25.60;85.10
21678;DHT22;11000;50.360;7.582;2022-08-21T10:15:34;26.30;84.00
21678;DHT22;11000;50.360;7.582;2022-08-21T10:21:16;26.80;80.40
21678;DHT22;11000;50.360;7.582;2022-08-21T10:25:55;26.60;79.90
21678;DHT22;11000;50.360;7.582;2022-08-21T10:34:10;27.10;81.00
21678;DHT22;11000;50.360;7.582;2022-08-21T10:36:42;27.60;76.70
21678;DHT22;11000;50.360;7.582;2022-08-21T10:39:23;27.50;75.70
21678;DHT22;11000;50.360;7.582;2022-08-21T10:41:56;28.10;75.70
21678;DHT22;11000;50.360;7.582;2022-08-21T10:47:13;28.70;71.80
21678;DHT22;11000;50.360;7.582;2022-08-21T10:55:22;28.60;70.00
21678;DHT22;11000;50.360;7.582;2022-08-21T10:58:19;28.00;72.90
21678;DHT22;11000;50.360;7.582;2022-08-21T11:00:44;28.40;71.10
21678;DHT22;11000;50.360;7.582;2022-08-21T11:03:13;28.90;70.10
21678;DHT22;11000;50.360;7.582;2022-08-21T11:05:40;28.60;69.00
21678;DHT22;11000;50.360;7.582;2022-08-21T11:10:27;27.20;71.40
21678;DHT22;11000;50.360;7.582;2022-08-21T11:13:06;26.90;74.30
21678;DHT22;11000;50.360;7.582;2022-08-21T11:15:51;27.20;74.60
21678;DHT22;11000;50.360;7.582;2022-08-21T11:20:59;28.60;68.80
21678;DHT22;11000;50.360;7.582;2022-08-21T11:23:25;28.70;69.30
21678;DHT22;11000;50.360;7.582;2022-08-21T11:25:53;29.20;67.10
21678;DHT22;11000;50.360;7.582;2022-08-21T11:28:17;28.90;66.80
21678;DHT22;11000;50.360;7.582;2022-08-21T11:31:06;28.00;67.70
21678;DHT22;11000;50.360;7.582;2022-08-21T11:37:06;28.70;67.70
21678;DHT22;11000;50.360;7.582;2022-08-21T11:42:35;27.30;69.90
21678;DHT22;11000;50.360;7.582;2022-08-21T11:45:11;27.40;70.60
21678;DHT22;11000;50.360;7.582;2022-08-21T11:47:48;27.60;69.90
21678;DHT22;11000;50.360;7.582;2022-08-21T11:50:15;27.10;71.50
21678;DHT22;11000;50.360;7.582;2022-08-21T11:52:45;26.90;71.50
21678;DHT22;11000;50.360;7.582;2022-08-21T11:55:19;26.40;72.20
21678;DHT22;11000;50.360;7.582;2022-08-21T12:00:34;26.40;73.50
21678;DHT22;11000;50.360;7.582;2022-08-21T12:03:10;26.70;72.20
21678;DHT22;11000;50.360;7.582;2022-08-21T12:05:38;26.50;72.90
21678;DHT22;11000;50.360;7.582;2022-08-21T12:08:15;27.00;72.70
21678;DHT22;11000;50.360;7.582;2022-08-21T12:11:04;27.40;69.80
21678;DHT22;11000;50.360;7.582;2022-08-21T12:13:29;27.40;70.20
21678;DHT22;11000;50.360;7.582;2022-08-21T12:15:50;27.60;69.30
21678;DHT22;11000;50.360;7.582;2022-08-21T12:18:28;27.50;69.10
21678;DHT22;11000;50.360;7.582;2022-08-21T12:21:05;27.10;68.80
21678;DHT22;11000;50.360;7.582;2022-08-21T12:26:46;27.50;69.30
21678;DHT22;11000;50.360;7.582;2022-08-21T12:29:15;27.90;68.50
21678;DHT22;11000;50.360;7.582;2022-08-21T12:31:51;27.90;66.70
21678;DHT22;11000;50.360;7.582;2022-08-21T12:34:14;27.20;67.30
21678;DHT22;11000;50.360;7.582;2022-08-21T12:36:45;26.80;69.00
21678;DHT22;11000;50.360;7.582;2022-08-21T12:39:15;26.80;69.70
21678;DHT22;11000;50.360;7.582;2022-08-21T12:45:00;27.20;70.80
21678;DHT22;11000;50.360;7.582;2022-08-21T12:47:27;28.00;67.00
21678;DHT22;11000;50.360;7.582;2022-08-21T12:50:00;28.20;65.50
21678;DHT22;11000;50.360;7.582;2022-08-21T12:52:25;28.30;67.10
21678;DHT22;11000;50.360;7.582;2022-08-21T12:54:49;28.70;64.30
21678;DHT22;11000;50.360;7.582;2022-08-21T12:57:19;29.00;64.70
21678;DHT22;11000;50.360;7.582;2022-08-21T12:59:40;29.80;61.90
21678;DHT22;11000;50.360;7.582;2022-08-21T13:02:03;29.00;61.90
21678;DHT22;11000;50.360;7.582;2022-08-21T13:04:37;29.00;62.70
21678;DHT22;11000;50.360;7.582;2022-08-21T13:07:00;29.00;63.80
21678;DHT22;11000;50.360;7.582;2022-08-21T13:09:27;29.10;61.20
21678;DHT22;11000;50.360;7.582;2022-08-21T13:11:49;28.70;62.40
21678;DHT22;11000;50.360;7.582;2022-08-21T13:14:33;28.10;63.10
21678;DHT22;11000;50.360;7.582;2022-08-21T13:16:56;27.80;63.80
21678;DHT22;11000;50.360;7.582;2022-08-21T13:19:17;28.10;63.40
21678;DHT22;11000;50.360;7.582;2022-08-21T13:21:42;28.20;63.60
21678;DHT22;11000;50.360;7.582;2022-08-21T13:24:12;28.20;62.20
21678;DHT22;11000;50.360;7.582;2022-08-21T13:26:34;29.00;61.50
21678;DHT22;11000;50.360;7.582;2022-08-21T13:29:07;29.30;60.50
21678;DHT22;11000;50.360;7.582;2022-08-21T13:31:29;29.50;59.30
21678;DHT22;11000;50.360;7.582;2022-08-21T13:33:53;29.20;58.50
21678;DHT22;11000;50.360;7.582;2022-08-21T13:36:19;29.40;59.50
21678;DHT22;11000;50.360;7.582;2022-08-21T13:38:41;28.70;59.30
21678;DHT22;11000;50.360;7.582;2022-08-21T13:41:08;28.60;60.60
21678;DHT22;11000;50.360;7.582;2022-08-21T13:43:36;28.90;60.00
21678;DHT22;11000;50.360;7.582;2022-08-21T13:45:57;29.00;61.10
21678;DHT22;11000;50.360;7.582;2022-08-21T13:48:19;29.80;58.30
21678;DHT22;11000;50.360;7.582;2022-08-21T13:50:41;30.10;57.20
21678;DHT22;11000;50.360;7.582;2022-08-21T13:53:05;30.40;57.00
21678;DHT22;11000;50.360;7.582;2022-08-21T13:55:41;30.50;57.00
21678;DHT22;11000;50.360;7.582;2022-08-21T13:58:04;30.80;55.30
21678;DHT22;11000;50.360;7.582;2022-08-21T14:00:31;31.10;54.20
21678;DHT22;11000;50.360;7.582;2022-08-21T14:02:53;31.30;53.60
21678;DHT22;11000;50.360;7.582;2022-08-21T14:05:26;31.20;53.60
21678;DHT22;11000;50.360;7.582;2022-08-21T14:07:50;30.00;54.70
21678;DHT22;11000;50.360;7.582;2022-08-21T14:10:18;29.20;55.70
21678;DHT22;11000;50.360;7.582;2022-08-21T14:15:05;28.80;57.20
21678;DHT22;11000;50.360;7.582;2022-08-21T14:17:32;28.40;57.80
21678;DHT22;11000;50.360;7.582;2022-08-21T14:19:53;28.20;57.90
21678;DHT22;11000;50.360;7.582;2022-08-21T14:22:38;28.60;57.90
21678;DHT22;11000;50.360;7.582;2022-08-21T14:28:14;29.00;56.90
21678;DHT22;11000;50.360;7.582;2022-08-21T14:30:38;28.70;57.30
21678;DHT22;11000;50.360;7.582;2022-08-21T14:33:02;28.70;57.30
21678;DHT22;11000;50.360;7.582;2022-08-21T14:35:23;28.50;57.80
21678;DHT22;11000;50.360;7.582;2022-08-21T14:37:44;28.20;57.90
21678;DHT22;11000;50.360;7.582;2022-08-21T14:40:07;28.60;58.50
21678;DHT22;11000;50.360;7.582;2022-08-21T14:42:28;28.70;57.00
21678;DHT22;11000;50.360;7.582;2022-08-21T14:44:49;28.10;58.00
21678;DHT22;11000;50.360;7.582;2022-08-21T14:47:11;28.30;57.90
21678;DHT22;11000;50.360;7.582;2022-08-21T14:49:32;28.50;57.70
21678;DHT22;11000;50.360;7.582;2022-08-21T14:51:53;28.30;57.50
21678;DHT22;11000;50.360;7.582;2022-08-21T14:54:18;28.20;57.80
21678;DHT22;11000;50.360;7.582;2022-08-21T14:56:38;28.50;58.60
21678;DHT22;11000;50.360;7.582;2022-08-21T14:59:04;28.60;58.00
21678;DHT22;11000;50.360;7.582;2022-08-21T15:01:25;28.90;57.90
21678;DHT22;11000;50.360;7.582;2022-08-21T15:03:46;29.40;56.60
21678;DHT22;11000;50.360;7.582;2022-08-21T15:06:09;29.70;56.10
21678;DHT22;11000;50.360;7.582;2022-08-21T15:08:31;30.10;55.40
21678;DHT22;11000;50.360;7.582;2022-08-21T15:10:53;30.50;54.70
21678;DHT22;11000;50.360;7.582;2022-08-21T15:13:14;30.20;53.60
21678;DHT22;11000;50.360;7.582;2022-08-21T15:15:41;29.00;54.90
21678;DHT22;11000;50.360;7.582;2022-08-21T15:18:02;28.80;56.80
21678;DHT22;11000;50.360;7.582;2022-08-21T15:20:23;29.00;55.80
21678;DHT22;11000;50.360;7.582;2022-08-21T15:22:45;28.80;55.90
21678;DHT22;11000;50.360;7.582;2022-08-21T15:25:07;29.00;57.00
21678;DHT22;11000;50.360;7.582;2022-08-21T15:27:28;29.30;56.00
21678;DHT22;11000;50.360;7.582;2022-08-21T15:29:50;29.60;55.10
21678;DHT22;11000;50.360;7.582;2022-08-21T15:32:30;29.30;54.80
21678;DHT22;11000;50.360;7.582;2022-08-21T15:34:53;29.30;55.50
21678;DHT22;11000;50.360;7.582;2022-08-21T15:37:17;29.20;54.90
21678;DHT22;11000;50.360;7.582;2022-08-21T15:39:40;28.90;55.40
21678;DHT22;11000;50.360;7.582;2022-08-21T15:42:02;28.70;56.50
21678;DHT22;11000;50.360;7.582;2022-08-21T15:44:24;28.30;56.20
21678;DHT22;11000;50.360;7.582;2022-08-21T15:46:47;28.00;57.30
21678;DHT22;11000;50.360;7.582;2022-08-21T15:49:08;27.80;57.30
21678;DHT22;11000;50.360;7.582;2022-08-21T15:51:29;27.80;58.10
21678;DHT22;11000;50.360;7.582;2022-08-21T15:53:51;28.30;57.70
21678;DHT22;11000;50.360;7.582;2022-08-21T15:56:21;28.30;56.90
21678;DHT22;11000;50.360;7.582;2022-08-21T15:58:45;28.30;55.90
21678;DHT22;11000;50.360;7.582;2022-08-21T16:01:06;28.50;56.90
21678;DHT22;11000;50.360;7.582;2022-08-21T16:03:28;28.40;56.00
21678;DHT22;11000;50.360;7.582;2022-08-21T16:05:49;28.20;56.50
21678;DHT22;11000;50.360;7.582;2022-08-21T16:08:12;27.90;57.00
21678;DHT22;11000;50.360;7.582;2022-08-21T16:10:34;28.00;58.50
21678;DHT22;11000;50.360;7.582;2022-08-21T16:13:02;28.40;57.50
21678;DHT22;11000;50.360;7.582;2022-08-21T16:15:24;28.60;56.20
21678;DHT22;11000;50.360;7.582;2022-08-21T16:17:47;28.40;56.10